Time;durP1;ratioP1;P1;durP2;ratioP2;P2;SDS_P1;SDS_P2;PMS_P1;PMS_P2;Temp;Humidity;BMP_temperature;BMP_pressure;BME280_temperature;BME280_humidity;BME280_pressure;Samples;Min_cycle;Max_cycle;Signal;HPM_P1;HPM_P2
2024/04/18 00:00:58;;;;;;;4.60;3.10;;;;;;;7.68;89.45;96700.04;104492;1274;62173;-48
2024/04/18 00:03:25;;;;;;;4.60;2.90;;;;;;;7.67;89.29;96696.59;104508;1270;75415;-48
2024/04/18 00:05:52;;;;;;;5.70;3.20;;;;;;;7.67;88.86;96695.52;104605;1273;65789;-50
2024/04/18 00:08:19;;;;;;;3.90;2.90;;;;;;;7.67;88.67;96693.35;104554;1270;72664;-48
2024/04/18 00:10:46;;;;;;;4.70;2.70;;;;;;;7.65;88.52;96691.42;104692;1274;62065;-48
2024/04/18 00:13:32;;;;;;;5.10;3.20;;;;;;;7.63;88.84;96693.16;104646;1269;62196;-47
2024/04/18 00:16:02;;;;;;;4.50;3.10;;;;;;;7.63;89.51;96691.35;104493;1273;75172;-49
2024/04/18 00:18:32;;;;;;;5.00;3.10;;;;;;;7.63;89.42;96691.46;104362;1271;66842;-50
2024/04/18 00:21:18;;;;;;;4.90;2.90;;;;;;;7.63;89.48;96697.81;104311;1270;72507;-48
2024/04/18 00:23:54;;;;;;;6.30;3.20;;;;;;;7.62;89.55;96690.67;104318;1274;62079;-49
2024/04/18 00:26:40;;;;;;;4.10;2.80;;;;;;;7.64;89.53;96694.48;104343;1272;62123;-49
2024/04/18 00:29:07;;;;;;;4.90;3.00;;;;;;;7.65;89.82;96693.06;104735;1273;62191;-48
2024/04/18 00:31:34;;;;;;;3.90;2.90;;;;;;;7.68;90.63;96690.92;104893;1270;66447;-49
2024/04/18 00:34:00;;;;;;;3.40;2.60;;;;;;;7.69;91.05;96690.83;104609;1270;72985;-48
2024/04/18 00:36:27;;;;;;;4.00;2.80;;;;;;;7.70;91.24;96687.60;104640;1270;62152;-48
2024/04/18 00:38:53;;;;;;;4.30;2.70;;;;;;;7.70;90.94;96686.66;105139;1270;62097;-48
2024/04/18 00:41:21;;;;;;;6.80;3.00;;;;;;;7.69;90.87;96688.92;104674;1272;74703;-48
2024/04/18 00:43:57;;;;;;;5.50;3.20;;;;;;;7.69;91.06;96694.58;104648;1269;66067;-48
2024/04/18 00:46:31;;;;;;;6.40;3.30;;;;;;;7.70;91.22;96701.58;104676;1271;71766;-48
2024/04/18 00:48:57;;;;;;;4.90;3.50;;;;;;;7.68;91.84;96701.52;104542;1271;62116;-49
2024/04/18 00:51:24;;;;;;;6.10;3.10;;;;;;;7.67;92.78;96697.29;104729;1270;62286;-49
2024/04/18 00:53:50;;;;;;;5.20;3.20;;;;;;;7.67;93.26;96696.00;104583;1273;74391;-49
2024/04/18 00:56:26;;;;;;;6.90;3.70;;;;;;;7.68;93.54;96688.46;104646;1270;66085;-48
2024/04/18 00:59:12;;;;;;;6.10;3.50;;;;;;;7.67;94.20;96687.84;104516;1271;72541;-49
2024/04/18 01:01:39;;;;;;;5.10;3.60;;;;;;;7.65;95.06;96687.89;104323;1270;62129;-48
2024/04/18 01:04:05;;;;;;;5.80;4.10;;;;;;;7.62;95.54;96688.92;104309;1268;62073;-48
2024/04/18 01:06:39;;;;;;;6.90;4.70;;;;;;;7.52;96.34;96694.38;104357;1273;75529;-48
2024/04/18 01:09:17;;;;;;;6.20;4.70;;;;;;;7.43;97.25;96700.75;104456;1270;66293;-48
2024/04/18 01:12:03;;;;;;;5.50;3.70;;;;;;;7.37;97.61;96700.01;104587;1274;72654;-48
2024/04/18 01:14:30;;;;;;;6.30;3.90;;;;;;;7.33;97.46;96699.94;104528;1270;62114;-48
2024/04/18 01:17:04;;;;;;;4.40;3.40;;;;;;;7.27;97.61;96698.30;104353;1271;62090;-49
2024/04/18 01:19:31;;;;;;;4.50;2.90;;;;;;;7.21;98.17;96702.71;104594;1273;74289;-49
2024/04/18 01:21:57;;;;;;;8.10;3.00;;;;;;;7.13;98.45;96697.27;104633;1273;66958;-50
2024/04/18 01:24:31;;;;;;;4.80;3.10;;;;;;;7.12;98.83;96698.20;104352;1271;72459;-50
2024/04/18 01:26:58;;;;;;;5.50;3.10;;;;;;;7.13;98.58;96699.19;104647;1272;62745;-51
2024/04/18 01:29:41;;;;;;;4.80;3.20;;;;;;;7.13;98.44;96701.59;104670;1270;62129;-49
2024/04/18 01:32:31;;;;;;;5.20;3.30;;;;;;;7.13;98.43;96694.62;104609;1273;75411;-48
2024/04/18 01:34:57;;;;;;;4.30;3.00;;;;;;;7.14;98.48;96688.30;104821;1270;65848;-48
2024/04/18 01:37:27;;;;;;;6.40;2.90;;;;;;;7.13;98.35;96682.89;104503;1271;72494;-49
2024/04/18 01:40:12;;;;;;;3.50;2.80;;;;;;;7.10;98.31;96683.27;104498;1270;62281;-48
2024/04/18 01:42:39;;;;;;;4.90;3.40;;;;;;;7.10;98.71;96681.15;104656;1271;62680;-49
2024/04/18 01:45:25;;;;;;;5.10;3.00;;;;;;;7.16;99.51;96685.34;104634;1271;75376;-50
2024/04/18 01:48:10;;;;;;;4.90;3.00;;;;;;;7.21;99.69;96681.91;104568;1273;65189;-49
2024/04/18 01:51:02;;;;;;;4.30;2.80;;;;;;;7.26;99.74;96682.46;104648;1270;72547;-50
2024/04/18 01:53:32;;;;;;;5.50;3.40;;;;;;;7.28;99.74;96682.88;104624;1272;62160;-50
2024/04/18 01:55:59;;;;;;;5.60;3.30;;;;;;;7.29;99.66;96681.96;104648;1269;62186;-50
2024/04/18 01:58:45;;;;;;;4.40;3.10;;;;;;;7.31;99.62;96674.42;104578;1272;74139;-49
2024/04/18 02:01:11;;;;;;;3.70;2.90;;;;;;;7.31;99.59;96676.58;104700;1273;65808;-49
2024/04/18 02:03:38;;;;;;;7.40;2.90;;;;;;;7.32;99.42;96676.56;104610;1271;73596;-49
2024/04/18 02:06:14;;;;;;;4.50;2.70;;;;;;;7.34;98.76;96674.34;104422;1271;62125;-50
2024/04/18 02:08:47;;;;;;;7.30;2.90;;;;;;;7.35;98.46;96665.14;104426;1269;62171;-50
2024/04/18 02:11:16;;;;;;;4.70;3.00;;;;;;;7.37;98.41;96659.30;104425;1271;75907;-49
2024/04/18 02:14:03;;;;;;;4.90;2.90;;;;;;;7.39;98.38;96655.21;104574;1273;65873;-50
2024/04/18 02:16:30;;;;;;;6.90;2.70;;;;;;;7.40;98.21;96657.25;104450;1271;72613;-50
2024/04/18 02:19:16;;;;;;;3.70;2.90;;;;;;;7.40;98.16;96653.69;104526;1274;62105;-49
2024/04/18 02:21:58;;;;;;;6.00;2.90;;;;;;;7.39;97.73;96652.42;104487;1271;62199;-51
2024/04/18 02:24:37;;;;;;;7.00;3.10;;;;;;;7.38;96.89;96651.59;104652;1269;75405;-51
2024/04/18 02:27:04;;;;;;;4.80;3.00;;;;;;;7.36;96.57;96655.33;104661;1271;66298;-50
2024/04/18 02:29:30;;;;;;;5.80;3.00;;;;;;;7.35;96.29;96654.98;104574;1270;72341;-49
2024/04/18 02:32:00;;;;;;;6.00;3.40;;;;;;;7.34;96.29;96650.21;104503;1273;62064;-49
2024/04/18 02:34:30;;;;;;;4.00;3.20;;;;;;;7.32;96.14;96648.70;104643;1271;62202;-48
2024/04/18 02:36:56;;;;;;;7.00;3.20;;;;;;;7.31;96.05;96649.37;104583;1271;62091;-49
2024/04/18 02:39:23;;;;;;;3.90;2.90;;;;;;;7.30;96.13;96647.97;104647;1270;62117;-49
2024/04/18 02:41:49;;;;;;;4.50;2.90;;;;;;;7.29;95.90;96649.14;104609;1270;61985;-49
2024/04/18 02:44:25;;;;;;;4.50;3.10;;;;;;;7.30;95.90;96654.20;104382;1271;62082;-48
2024/04/18 02:46:51;;;;;;;7.50;3.10;;;;;;;7.30;95.95;96657.59;104257;1269;173724;-48
2024/04/18 02:49:18;;;;;;;4.20;3.20;;;;;;;7.30;95.64;96659.39;104680;1274;62717;-49
2024/04/18 02:51:54;;;;;;;3.60;2.90;;;;;;;7.30;95.59;96662.81;104608;1272;66197;-49
2024/04/18 02:54:39;;;;;;;;;;;;;;;7.29;95.44;96660.55;104641;1270;72549;-49
2024/04/18 02:57:06;;;;;;;4.40;3.20;;;;;;;7.27;95.36;96662.04;104484;1273;62075;-48
2024/04/18 02:59:32;;;;;;;4.90;3.20;;;;;;;7.25;95.35;96660.80;104538;1271;62087;-49
2024/04/18 03:02:19;;;;;;;5.50;3.70;;;;;;;7.25;95.57;96656.38;104442;1271;75264;-53
2024/04/18 03:04:45;;;;;;;6.50;4.20;;;;;;;7.27;95.59;96652.70;104802;1271;66010;-50
2024/04/18 03:07:12;;;;;;;4.20;3.40;;;;;;;7.27;95.92;96649.81;104520;1270;72675;-54
2024/04/18 03:09:47;;;;;;;5.30;3.40;;;;;;;7.27;95.85;96651.85;104530;1273;62076;-48
2024/04/18 03:12:26;;;;;;;4.70;3.20;;;;;;;7.25;95.86;96646.37;104584;1271;62103;-49
2024/04/18 03:15:19;;;;;;;4.60;3.30;;;;;;;7.23;95.52;96644.11;104390;1271;76419;-49
2024/04/18 03:18:05;;;;;;;5.60;3.60;;;;;;;7.24;95.77;96640.95;104625;1273;65827;-48
2024/04/18 03:20:34;;;;;;;6.80;3.30;;;;;;;7.24;95.63;96639.98;104674;1270;71726;-48
2024/04/18 03:23:08;;;;;;;4.50;3.50;;;;;;;7.26;95.59;96645.02;104639;1273;62440;-48
2024/04/18 03:25:53;;;;;;;5.00;3.30;;;;;;;7.28;95.50;96649.16;104665;1271;62172;-48
2024/04/18 03:28:20;;;;;;;6.20;3.20;;;;;;;7.29;95.35;96646.70;104665;1270;75115;-48
2024/04/18 03:30:47;;;;;;;5.20;3.60;;;;;;;7.29;95.23;96646.75;104339;1273;64330;-48
2024/04/18 03:33:14;;;;;;;6.40;4.20;;;;;;;7.28;95.23;96646.06;104684;1271;72621;-48
2024/04/18 03:35:41;;;;;;;4.60;3.50;;;;;;;7.29;95.18;96652.24;104458;1270;62179;-49
2024/04/18 03:38:14;;;;;;;5.40;3.30;;;;;;;7.29;95.27;96650.59;104339;1269;62100;-50
2024/04/18 03:40:40;;;;;;;7.90;3.40;;;;;;;7.29;95.26;96650.48;104682;1271;75558;-48
2024/04/18 03:43:07;;;;;;;6.40;3.70;;;;;;;7.28;95.42;96647.41;104558;1273;62173;-48
2024/04/18 03:45:33;;;;;;;6.30;3.90;;;;;;;7.28;95.50;96642.70;104371;1270;62045;-49
2024/04/18 03:48:19;;;;;;;6.30;3.60;;;;;;;7.27;95.80;96639.70;104590;1269;62001;-50
2024/04/18 03:50:46;;;;;;;7.60;3.70;;;;;;;7.27;95.88;96640.67;104562;1270;62149;-49
2024/04/18 03:53:19;;;;;;;5.60;4.10;;;;;;;7.25;96.11;96642.16;104479;1273;75444;-49
2024/04/18 03:55:45;;;;;;;6.40;4.10;;;;;;;7.24;96.42;96642.08;104600;1269;66347;-49
2024/04/18 03:58:12;;;;;;;5.20;3.50;;;;;;;7.24;96.54;96645.97;104449;1271;72641;-49
2024/04/18 04:00:48;;;;;;;;;;;;;;;7.24;96.97;96642.48;104408;1269;62180;-49
2024/04/18 04:03:14;;;;;;;5.20;3.20;;;;;;;7.25;97.12;96642.48;104394;1270;62184;-49
2024/04/18 04:05:41;;;;;;;8.80;3.80;;;;;;;7.26;97.11;96641.17;104319;1274;75177;-48
2024/04/18 04:08:09;;;;;;;5.10;3.50;;;;;;;7.27;96.94;96646.84;104373;1270;62053;-49
2024/04/18 04:10:38;;;;;;;7.90;3.60;;;;;;;7.28;97.11;96650.17;104510;1270;71483;-49
2024/04/18 04:13:05;;;;;;;5.20;4.00;;;;;;;7.29;97.08;96647.33;104337;1271;62050;-49
2024/04/18 04:15:41;;;;;;;6.40;3.90;;;;;;;7.31;97.17;96656.56;104373;1271;62057;-49
2024/04/18 04:18:07;;;;;;;8.80;3.70;;;;;;;7.33;97.14;96657.14;104370;1273;75320;-49
2024/04/18 04:20:43;;;;;;;7.70;3.80;;;;;;;7.36;97.30;96656.51;104617;1271;63916;-50
2024/04/18 04:23:10;;;;;;;10.20;3.80;;;;;;;7.39;97.33;96654.02;104308;1270;72621;-49
2024/04/18 04:25:55;;;;;;;8.90;3.90;;;;;;;7.44;97.23;96656.30;104288;1273;62123;-49
2024/04/18 04:28:21;;;;;;;4.00;3.00;;;;;;;7.48;97.11;96661.11;104594;1270;62075;-49
2024/04/18 04:30:48;;;;;;;5.70;3.60;;;;;;;7.51;96.78;96661.27;104379;1270;62181;-49
2024/04/18 04:33:14;;;;;;;5.00;3.60;;;;;;;7.52;96.88;96664.05;104319;1270;66089;-48
2024/04/18 04:35:41;;;;;;;6.10;3.60;;;;;;;7.53;97.03;96664.80;104284;1270;62281;-48
2024/04/18 04:38:07;;;;;;;6.10;3.80;;;;;;;7.56;97.13;96671.43;104300;1273;62097;-50
2024/04/18 04:40:34;;;;;;;4.30;3.20;;;;;;;7.61;96.98;96680.05;104500;1273;62068;-48
2024/04/18 04:43:00;;;;;;;7.40;3.90;;;;;;;7.65;96.90;96685.60;104351;1273;61982;-51
2024/04/18 04:45:27;;;;;;;4.70;3.40;;;;;;;7.69;96.90;96684.93;104598;1269;66080;-50
2024/04/18 04:48:06;;;;;;;7.90;3.60;;;;;;;7.72;96.88;96688.48;104557;1271;72435;-49
2024/04/18 04:50:57;;;;;;;8.10;3.90;;;;;;;7.73;96.81;96690.23;104485;1273;62041;-48
2024/04/18 04:53:31;;;;;;;5.60;3.60;;;;;;;7.73;96.72;96693.38;104284;1270;62150;-49
2024/04/18 04:56:00;;;;;;;8.30;3.90;;;;;;;7.74;96.77;96696.25;104657;1272;75477;-49
2024/04/18 04:58:27;;;;;;;6.20;3.60;;;;;;;7.76;96.73;96701.29;104388;1273;63934;-48
2024/04/18 05:00:54;;;;;;;5.70;3.80;;;;;;;7.77;96.81;96705.80;104248;1271;72577;-48
2024/04/18 05:03:36;;;;;;;5.60;3.60;;;;;;;7.80;96.87;96710.57;104517;1274;62088;-49
2024/04/18 05:06:24;;;;;;;6.40;4.00;;;;;;;7.82;97.07;96708.55;104526;1273;62095;-48
2024/04/18 05:09:10;;;;;;;5.30;3.70;;;;;;;7.84;97.04;96706.01;104453;1273;75919;-49
2024/04/18 05:11:36;;;;;;;6.20;4.90;;;;;;;7.84;96.90;96708.89;104510;1270;66005;-50
2024/04/18 05:14:23;;;;;;;6.20;4.80;;;;;;;7.85;97.02;96712.65;104427;1271;72551;-46
2024/04/18 05:16:49;;;;;;;7.00;4.60;;;;;;;7.85;97.01;96708.86;104331;1273;62104;-48
2024/04/18 05:19:16;;;;;;;5.50;3.50;;;;;;;7.85;97.19;96708.95;104589;1271;62001;-48
2024/04/18 05:21:43;;;;;;;5.80;3.90;;;;;;;7.84;97.17;96709.67;104557;1270;75214;-46
2024/04/18 05:24:28;;;;;;;;;;;;;;;7.85;97.51;96711.77;104514;1273;66471;-47
2024/04/18 05:26:55;;;;;;;5.60;3.80;;;;;;;7.87;97.87;96708.59;104346;1271;72603;-51
2024/04/18 05:32:08;;;;;;;;;;;;;;;7.93;98.16;96715.97;104224;1271;61990;-51
2024/04/18 05:34:35;;;;;;;7.30;4.50;;;;;;;7.96;98.34;96723.36;104486;1273;75358;-46
2024/04/18 05:37:01;;;;;;;10.70;4.10;;;;;;;8.00;98.47;96727.16;104280;1271;66900;-47
2024/04/18 05:39:30;;;;;;;7.70;3.50;;;;;;;8.04;98.35;96730.35;104503;1271;72498;-47
2024/04/18 05:41:57;;;;;;;6.30;3.90;;;;;;;8.06;98.13;96731.48;104101;1270;62167;-53
2024/04/18 05:44:37;;;;;;;5.80;4.30;;;;;;;8.05;97.81;96726.23;104723;1270;62168;-47
2024/04/18 05:47:04;;;;;;;8.30;4.30;;;;;;;8.02;97.64;96722.52;104525;1273;75477;-51
2024/04/18 05:49:31;;;;;;;6.80;4.20;;;;;;;7.99;97.79;96723.91;104381;1273;65454;-53
2024/04/18 05:51:58;;;;;;;8.00;4.00;;;;;;;8.03;98.59;96717.64;104337;1271;72667;-54
2024/04/18 05:54:29;;;;;;;6.80;3.90;;;;;;;8.10;98.39;96713.73;104441;1271;62272;-57
2024/04/18 05:57:05;;;;;;;8.50;3.90;;;;;;;8.15;97.97;96706.13;104518;1273;62168;-59
2024/04/18 05:59:53;;;;;;;8.00;3.80;;;;;;;8.17;97.81;96710.25;104370;1270;76097;-49
2024/04/18 06:02:21;;;;;;;6.50;4.30;;;;;;;8.16;97.78;96719.38;104437;1273;65001;-49
2024/04/18 06:04:48;;;;;;;6.60;4.30;;;;;;;8.18;98.21;96723.56;104540;1271;72686;-49
2024/04/18 06:07:35;;;;;;;5.10;3.90;;;;;;;8.21;98.41;96725.13;104465;1270;62344;-54
2024/04/18 06:10:01;;;;;;;4.20;3.30;;;;;;;8.22;98.07;96718.48;104428;1269;62161;-49
2024/04/18 06:12:28;;;;;;;5.50;3.70;;;;;;;8.22;98.03;96721.10;104108;1276;75217;-47
2024/04/18 06:14:55;;;;;;;6.10;4.40;;;;;;;8.22;97.74;96721.54;104437;1270;66065;-49
2024/04/18 06:17:22;;;;;;;6.60;4.20;;;;;;;8.21;97.57;96725.81;104516;1271;73082;-47
2024/04/18 06:19:51;;;;;;;6.60;4.10;;;;;;;8.22;97.25;96724.14;104485;1271;62168;-43
2024/04/18 06:22:28;;;;;;;7.70;4.40;;;;;;;8.21;97.19;96724.11;104468;1270;62192;-52
2024/04/18 06:25:16;;;;;;;5.50;3.70;;;;;;;8.16;96.90;96730.05;104247;1273;75488;-47
2024/04/18 06:27:43;;;;;;;5.50;3.50;;;;;;;8.09;96.93;96732.80;104628;1272;65443;-55
2024/04/18 06:30:10;;;;;;;6.90;3.80;;;;;;;8.07;97.73;96730.97;104480;1271;72743;-49
2024/04/18 06:32:37;;;;;;;8.40;3.90;;;;;;;8.11;98.08;96729.17;104402;1273;62127;-46
2024/04/18 06:35:04;;;;;;;5.70;3.80;;;;;;;8.16;98.40;96734.00;106179;1269;62173;-47
2024/04/18 06:37:36;;;;;;;10.90;4.30;;;;;;;8.21;98.31;96740.74;104549;1272;75908;-44
2024/04/18 06:40:08;;;;;;;5.00;4.10;;;;;;;8.26;98.06;96745.31;104123;1270;67188;-46
2024/04/18 06:42:36;;;;;;;5.20;4.00;;;;;;;8.27;97.97;96744.55;104842;1271;72043;-47
2024/04/18 06:45:12;;;;;;;6.90;4.00;;;;;;;8.30;98.25;96742.45;104699;1271;61966;-48
2024/04/18 06:47:41;;;;;;;7.30;3.90;;;;;;;8.31;98.35;96743.34;104319;1279;62100;-43
2024/04/18 06:50:20;;;;;;;7.30;4.20;;;;;;;8.32;98.70;96742.77;105240;1273;75116;-45
2024/04/18 06:52:56;;;;;;;5.70;4.00;;;;;;;8.36;98.66;96742.24;104531;1273;66090;-50
2024/04/18 06:55:35;;;;;;;6.60;4.00;;;;;;;8.39;98.48;96740.04;104135;1274;72737;-49
2024/04/18 06:58:11;;;;;;;7.30;4.60;;;;;;;8.42;98.53;96738.58;104325;1276;62630;-54
2024/04/18 07:00:42;;;;;;;5.10;3.70;;;;;;;8.48;98.64;96738.95;104456;1277;62255;-44
2024/04/18 07:03:12;;;;;;;5.70;4.00;;;;;;;8.53;98.59;96740.73;103924;1270;76442;-46
2024/04/18 07:05:51;;;;;;;5.60;3.60;;;;;;;8.56;97.89;96743.33;104265;1270;67397;-46
2024/04/18 07:08:21;;;;;;;6.40;3.70;;;;;;;8.56;97.14;96738.02;104304;1275;73461;-49
2024/04/18 07:10:47;;;;;;;6.50;3.50;;;;;;;8.58;97.41;96737.99;104435;1271;62160;-47
2024/04/18 07:13:27;;;;;;;4.90;3.70;;;;;;;8.61;97.07;96736.63;104345;1270;62193;-48
2024/04/18 07:15:54;;;;;;;8.10;3.40;;;;;;;8.62;96.85;96739.65;104563;1271;75320;-43
2024/04/18 07:18:40;;;;;;;6.60;3.60;;;;;;;8.61;96.43;96736.19;104276;1271;66055;-43
2024/04/18 07:21:07;;;;;;;6.10;3.90;;;;;;;8.65;96.89;96737.91;104484;1271;73424;-42
2024/04/18 07:23:37;;;;;;;8.60;3.80;;;;;;;8.74;97.17;96739.02;104226;1271;62041;-44
2024/04/18 07:26:04;;;;;;;9.00;3.50;;;;;;;8.83;96.74;96738.10;107477;1273;59797;-46
2024/04/18 07:28:31;;;;;;;4.50;3.60;;;;;;;8.92;95.99;96736.32;104366;1269;76219;-44
2024/04/18 07:30:58;;;;;;;6.50;3.40;;;;;;;9.01;95.95;96730.31;104285;1270;65159;-47
2024/04/18 07:33:25;;;;;;;6.20;3.00;;;;;;;9.10;95.12;96729.17;104234;1270;71538;-44
2024/04/18 07:35:56;;;;;;;5.30;3.20;;;;;;;9.12;94.03;96732.39;104430;1270;62640;-42
2024/04/18 07:38:26;;;;;;;6.30;3.20;;;;;;;9.10;93.69;96733.45;104364;1271;64290;-40
2024/04/18 07:40:53;;;;;;;6.30;3.80;;;;;;;9.14;94.04;96731.04;104422;1273;76338;-39
2024/04/18 07:43:19;;;;;;;7.30;3.80;;;;;;;9.21;93.86;96734.35;104328;1271;65841;-42
2024/04/18 07:45:46;;;;;;;5.00;3.50;;;;;;;9.29;93.79;96732.73;104428;1270;72487;-48
2024/04/18 07:48:13;;;;;;;7.00;4.40;;;;;;;9.36;93.37;96730.39;104405;1270;62201;-44
2024/04/18 07:50:48;;;;;;;5.20;3.60;;;;;;;9.44;93.10;96723.95;104427;1271;62190;-44
2024/04/18 07:53:15;;;;;;;8.00;4.40;;;;;;;9.52;92.42;96723.61;104307;1271;73612;-43
2024/04/18 07:55:42;;;;;;;6.50;3.80;;;;;;;9.57;91.64;96718.90;104463;1269;67278;-46
2024/04/18 07:58:08;;;;;;;6.10;3.70;;;;;;;9.63;91.38;96722.45;104439;1271;73504;-50
2024/04/18 08:00:36;;;;;;;6.90;4.30;;;;;;;9.69;90.98;96723.69;107103;1270;62064;-48
2024/04/18 08:03:06;;;;;;;5.30;3.90;;;;;;;9.74;90.70;96727.73;104470;1270;62097;-51
2024/04/18 08:05:35;;;;;;;5.20;3.60;;;;;;;9.74;89.91;96727.80;105227;1270;76487;-48
2024/04/18 08:08:06;;;;;;;5.60;3.40;;;;;;;9.72;89.19;96726.75;104202;1271;64581;-44
2024/04/18 08:10:37;;;;;;;6.30;3.70;;;;;;;9.71;89.08;96725.66;104153;1271;72660;-50
2024/04/18 08:13:24;;;;;;;5.10;3.90;;;;;;;9.72;89.11;96727.86;104327;1274;61975;-56
2024/04/18 08:16:00;;;;;;;6.00;3.90;;;;;;;9.73;88.52;96724.55;106842;1272;61992;-54
2024/04/18 08:18:27;;;;;;;5.90;3.90;;;;;;;9.70;87.90;96725.17;104327;1273;75529;-48
2024/04/18 08:20:56;;;;;;;5.60;4.00;;;;;;;9.67;88.31;96726.65;104161;1273;67024;-46
2024/04/18 08:23:28;;;;;;;6.90;3.80;;;;;;;9.71;88.56;96728.75;104380;1272;72564;-50
2024/04/18 08:25:54;;;;;;;6.70;3.70;;;;;;;9.76;88.89;96729.88;104290;1277;62747;-47
2024/04/18 08:28:21;;;;;;;8.90;2.90;;;;;;;9.84;88.55;96735.74;104333;1268;62081;-50
2024/04/18 08:30:48;;;;;;;4.80;3.00;;;;;;;9.92;87.13;96734.66;105181;1268;74743;-48
2024/04/18 08:33:14;;;;;;;6.40;2.80;;;;;;;10.00;86.27;96732.77;104363;1268;65643;-55
2024/04/18 08:35:45;;;;;;;3.20;2.40;;;;;;;10.05;84.94;96732.80;104499;1268;72480;-49
2024/04/18 08:38:12;;;;;;;7.00;3.20;;;;;;;10.11;84.72;96730.77;104476;1273;62075;-49
2024/04/18 08:40:43;;;;;;;5.20;3.00;;;;;;;10.16;84.56;96732.69;104483;1268;62213;-47
2024/04/18 08:43:11;;;;;;;5.10;3.50;;;;;;;10.17;84.37;96733.84;104584;1273;74627;-53
2024/04/18 08:45:38;;;;;;;6.80;4.20;;;;;;;10.08;84.38;96728.02;104630;1268;66454;-54
2024/04/18 08:48:05;;;;;;;8.70;4.00;;;;;;;10.02;84.66;96722.57;104397;1268;72444;-54
2024/04/18 08:50:32;;;;;;;5.70;3.50;;;;;;;9.96;85.06;96718.11;104483;1272;62202;-49
2024/04/18 08:52:59;;;;;;;5.70;3.00;;;;;;;9.89;85.32;96715.81;104270;1268;62136;-53
2024/04/18 08:55:25;;;;;;;3.90;2.60;;;;;;;9.78;85.66;96726.45;104327;1268;75587;-51
2024/04/18 08:57:56;;;;;;;11.40;3.00;;;;;;;9.64;85.10;96739.76;104446;1268;67104;-47
2024/04/18 09:00:25;;;;;;;4.80;2.40;;;;;;;9.32;86.40;96752.41;104703;1268;73892;-50
2024/04/18 09:02:53;;;;;;;3.10;2.20;;;;;;;8.89;85.99;96740.52;104423;1268;62148;-49
2024/04/18 09:05:19;;;;;;;4.10;2.40;;;;;;;8.40;87.69;96734.66;106532;1270;62098;-52
2024/04/18 09:07:46;;;;;;;3.70;2.40;;;;;;;8.09;90.21;96732.04;105880;1268;76252;-48
2024/04/18 09:10:14;;;;;;;7.00;2.70;;;;;;;7.96;92.70;96734.50;104314;1268;67528;-50
2024/04/18 09:12:41;;;;;;;4.90;2.40;;;;;;;7.95;95.16;96732.55;108124;1268;71863;-48
2024/04/18 09:15:07;;;;;;;9.40;3.20;;;;;;;8.03;96.62;96733.89;107816;1268;60283;-49
2024/04/18 09:17:34;;;;;;;8.20;5.70;;;;;;;8.16;97.65;96728.73;104383;1268;62063;-44
2024/04/18 09:20:01;;;;;;;7.60;3.40;;;;;;;8.32;98.46;96727.35;104413;1272;75393;-43
2024/04/18 09:22:28;;;;;;;7.00;3.30;;;;;;;8.46;97.96;96724.00;104553;1268;66082;-43
2024/04/18 09:24:54;;;;;;;5.50;3.80;;;;;;;8.55;98.38;96719.55;104583;1268;73342;-45
2024/04/18 09:27:21;;;;;;;6.60;3.50;;;;;;;8.70;99.56;96717.55;104499;1268;62103;-45
2024/04/18 09:29:48;;;;;;;5.60;3.90;;;;;;;8.89;99.87;96712.36;104375;1268;62151;-45
2024/04/18 09:32:16;;;;;;;6.00;4.40;;;;;;;9.07;99.76;96710.84;104346;1272;76140;-47
2024/04/18 09:34:47;;;;;;;8.40;5.80;;;;;;;9.25;99.99;96703.75;104179;1268;65569;-49
2024/04/18 09:37:15;;;;;;;15.20;7.30;;;;;;;9.46;100.00;96701.29;104554;1268;73183;-46
2024/04/18 09:39:43;;;;;;;9.00;5.10;;;;;;;9.68;100.00;96700.59;104372;1272;61996;-46
2024/04/18 09:42:17;;;;;;;7.80;5.20;;;;;;;9.86;99.87;96697.09;108031;1268;60080;-47
2024/04/18 09:44:46;;;;;;;7.00;4.30;;;;;;;9.99;98.06;96697.27;107997;1270;75415;-47
2024/04/18 09:47:13;;;;;;;7.40;3.70;;;;;;;10.07;97.06;96693.79;104389;1269;66496;-44
2024/04/18 09:49:39;;;;;;;6.00;3.60;;;;;;;10.14;94.77;96690.54;106865;1268;73705;-43
2024/04/18 09:52:07;;;;;;;4.40;3.20;;;;;;;10.15;94.41;96679.87;104034;1268;62204;-48
2024/04/18 09:54:35;;;;;;;4.30;3.10;;;;;;;10.20;93.34;96675.02;104577;1268;62209;-50
2024/04/18 09:57:03;;;;;;;5.60;3.20;;;;;;;10.18;91.34;96667.98;104315;1272;75241;-44
2024/04/18 09:59:29;;;;;;;5.80;4.00;;;;;;;10.12;90.73;96666.41;108310;1269;65398;-48
2024/04/18 10:01:56;;;;;;;6.30;3.50;;;;;;;10.15;91.50;96664.66;105774;1273;61995;-52
2024/04/18 10:04:22;;;;;;;7.60;2.90;;;;;;;10.28;91.79;96659.63;104067;1268;62165;-48
2024/04/18 10:06:49;;;;;;;5.00;3.40;;;;;;;10.36;90.21;96661.27;108335;1268;59734;-50
2024/04/18 10:09:16;;;;;;;5.20;3.10;;;;;;;10.41;89.57;96661.78;108331;1268;59823;-49
2024/04/18 10:11:42;;;;;;;6.20;3.30;;;;;;;10.50;90.07;96661.53;107022;1273;67311;-44
2024/04/18 10:14:09;;;;;;;4.10;3.30;;;;;;;10.60;89.02;96661.80;104438;1268;72690;-43
2024/04/18 10:16:49;;;;;;;3.80;2.70;;;;;;;10.69;88.70;96657.31;104384;1268;61997;-46
2024/04/18 10:19:20;;;;;;;4.60;2.90;;;;;;;10.76;87.87;96657.22;104536;1268;62491;-44
2024/04/18 10:21:56;;;;;;;3.60;2.80;;;;;;;10.77;86.67;96652.58;104572;1269;75882;-47
2024/04/18 10:24:42;;;;;;;5.90;3.60;;;;;;;10.70;86.46;96660.87;105167;1268;65244;-44
2024/04/18 10:27:14;;;;;;;6.20;3.30;;;;;;;10.65;86.14;96657.80;104259;1268;73279;-48
2024/04/18 10:29:40;;;;;;;3.50;2.70;;;;;;;10.57;85.36;96653.49;104425;1268;61950;-47
2024/04/18 10:32:07;;;;;;;5.70;2.90;;;;;;;10.50;84.35;96656.55;104296;1268;62171;-56
2024/04/18 10:34:34;;;;;;;6.40;3.00;;;;;;;10.43;83.68;96655.73;104332;1276;75660;-47
2024/04/18 10:37:05;;;;;;;3.80;2.90;;;;;;;10.42;84.59;96656.77;104332;1273;67615;-48
2024/04/18 10:39:36;;;;;;;3.60;2.70;;;;;;;10.48;84.07;96652.91;104825;1268;74022;-48
2024/04/18 10:42:06;;;;;;;4.30;2.90;;;;;;;10.55;83.34;96653.85;104380;1268;62311;-50
2024/04/18 10:44:33;;;;;;;4.70;2.90;;;;;;;10.58;83.07;96649.23;104792;1273;62202;-55
2024/04/18 10:47:00;;;;;;;6.70;2.90;;;;;;;10.61;82.43;96648.13;104337;1269;76215;-53
2024/04/18 10:49:26;;;;;;;5.20;3.00;;;;;;;10.60;81.63;96645.35;105855;1274;65353;-46
2024/04/18 10:51:53;;;;;;;5.90;3.00;;;;;;;10.65;82.49;96648.23;106892;1268;71884;-43
2024/04/18 10:54:19;;;;;;;3.30;2.00;;;;;;;10.72;81.05;96650.23;108030;1268;62250;-45
2024/04/18 10:56:46;;;;;;;2.70;1.60;;;;;;;10.77;78.36;96649.77;104583;1268;62062;-43
2024/04/18 10:59:13;;;;;;;4.40;1.90;;;;;;;10.82;76.20;96649.20;104381;1272;75795;-45
2024/04/18 11:01:41;;;;;;;4.00;1.70;;;;;;;10.84;74.88;96647.82;104400;1273;62155;-48
2024/04/18 11:04:07;;;;;;;2.70;1.70;;;;;;;10.85;73.40;96650.40;104543;1268;73535;-43
2024/04/18 11:06:38;;;;;;;5.40;1.80;;;;;;;10.84;72.26;96651.57;104627;1273;62069;-45
2024/04/18 11:09:05;;;;;;;4.90;1.60;;;;;;;10.81;71.59;96654.30;104552;1268;62081;-45
2024/04/18 11:11:33;;;;;;;4.90;1.70;;;;;;;10.79;69.87;96649.92;104849;1273;76256;-45
2024/04/18 11:14:00;;;;;;;5.80;2.00;;;;;;;10.78;69.34;96648.98;104751;1272;66278;-45
2024/04/18 11:16:27;;;;;;;3.80;1.60;;;;;;;10.84;69.13;96650.52;104348;1273;72107;-47
2024/04/18 11:18:54;;;;;;;1.70;1.30;;;;;;;10.94;68.83;96644.30;104921;1272;62180;-45
2024/04/18 11:21:21;;;;;;;5.60;2.00;;;;;;;11.04;68.19;96644.30;104623;1268;62737;-51
2024/04/18 11:23:51;;;;;;;4.00;1.60;;;;;;;11.12;67.69;96644.59;105131;1268;76442;-48
2024/04/18 11:26:19;;;;;;;3.60;1.50;;;;;;;11.13;66.35;96645.25;104488;1273;65452;-49
2024/04/18 11:28:48;;;;;;;5.30;1.50;;;;;;;11.09;66.58;96648.02;104491;1268;73572;-49
2024/04/18 11:31:16;;;;;;;5.90;1.30;;;;;;;11.02;66.42;96653.48;104674;1273;62210;-46
2024/04/18 11:33:43;;;;;;;1.60;1.10;;;;;;;10.89;66.33;96649.02;104466;1268;62075;-48
2024/04/18 11:36:10;;;;;;;2.40;1.60;;;;;;;10.66;67.00;96662.57;104812;1272;74609;-45
2024/04/18 11:38:39;;;;;;;5.20;1.60;;;;;;;10.40;68.24;96668.23;104421;1268;66154;-49
2024/04/18 11:41:06;;;;;;;2.20;1.30;;;;;;;10.17;69.27;96672.49;104591;1272;72909;-46
2024/04/18 11:43:33;;;;;;;3.50;1.90;;;;;;;9.96;70.59;96678.05;104593;1268;61989;-45
2024/04/18 11:45:59;;;;;;;3.60;2.10;;;;;;;9.78;72.03;96690.17;104540;1268;62205;-45
2024/04/18 11:48:26;;;;;;;6.00;2.50;;;;;;;9.59;73.39;96700.34;104822;1271;75404;-46
2024/04/18 11:50:53;;;;;;;4.60;2.20;;;;;;;9.39;75.13;96706.71;104515;1273;65576;-52